Kirby, Vermont
Current Conditions -  °F | °C
As of 1:35 AM on Friday 31 Oct 2014 (Local Time) from KCDA Reporting Station
Overcast Overcast  
Wind Chill: 39°   Ceiling: 3900
Heat Index: 39°   Visibility: 10mi
Dew Point: 31°   Wind: 0mph
Humidity: 72%   Direction: NA
Pressure: 30"   Gusts: NA
Location:  44.4417°N, 71.859°W
Report Text: KCDA 310535Z AUTO 00000KT 10SM OVC039 04/M01 A3000 RMK AO2 T00401006
Loading
Personal Weather Stations






























Interactive Weather Map
Tropical Storm Tracking
New forecast layout! Learn more

10-Day Weather Forecast

Advertisements
Track Severe Weather on mobile